Time;durP1;ratioP1;P1;durP2;ratioP2;P2;SDS_P1;SDS_P2;PMS_P1;PMS_P2;Temp;Humidity;BMP_temperature;BMP_pressure;BME280_temperature;BME280_humidity;BME280_pressure;Samples;Min_cycle;Max_cycle;Signal;HPM_P1;HPM_P2
2023/08/12 00:00:11;;;;;;;3.70;3.10;;;19.20;99.90;;;;;;5016277;28;20994;-67
2023/08/12 00:02:38;;;;;;;4.00;2.90;;;19.10;99.90;;;;;;5021363;28;20456;-67
2023/08/12 00:05:06;;;;;;;3.30;3.00;;;19.10;99.90;;;;;;5029928;28;20458;-67
2023/08/12 00:07:33;;;;;;;3.70;3.10;;;19.00;99.90;;;;;;5030759;28;20938;-67
2023/08/12 00:10:00;;;;;;;3.43;2.97;;;19.00;99.90;;;;;;5025084;28;20478;-66
2023/08/12 00:12:27;;;;;;;3.70;3.40;;;19.00;99.90;;;;;;5033431;28;20516;-68
2023/08/12 00:14:53;;;;;;;3.23;2.93;;;19.00;99.90;;;;;;5033648;28;20972;-67
2023/08/12 00:17:22;;;;;;;4.20;3.30;;;19.00;99.90;;;;;;5032791;28;20825;-68
2023/08/12 00:19:48;;;;;;;3.57;3.27;;;18.90;99.90;;;;;;5021598;28;20859;-68
2023/08/12 00:22:15;;;;;;;3.87;3.00;;;18.90;99.90;;;;;;5021791;28;20459;-68
2023/08/12 00:24:42;;;;;;;3.30;3.00;;;18.90;99.90;;;;;;5033434;28;20462;-67
2023/08/12 00:27:09;;;;;;;3.90;3.30;;;18.90;99.90;;;;;;5018156;28;20465;-67
2023/08/12 00:29:36;;;;;;;2.83;2.63;;;18.90;99.90;;;;;;5031714;28;20487;-68
2023/08/12 00:32:03;;;;;;;3.93;3.50;;;18.90;99.90;;;;;;5027204;28;20472;-67
2023/08/12 00:34:31;;;;;;;3.67;3.37;;;18.80;99.90;;;;;;5031161;28;20464;-68
2023/08/12 00:36:57;;;;;;;3.60;3.30;;;18.80;99.90;;;;;;5032787;28;20458;-67
2023/08/12 00:39:24;;;;;;;3.60;3.30;;;18.80;99.90;;;;;;5032595;28;20841;-67
2023/08/12 00:41:51;;;;;;;4.53;3.57;;;18.70;99.90;;;;;;5033350;28;20459;-68
2023/08/12 00:44:17;;;;;;;3.67;3.37;;;18.70;99.90;;;;;;5033065;28;20458;-67
2023/08/12 00:46:44;;;;;;;3.33;3.03;;;18.70;99.90;;;;;;5032847;28;20830;-68
2023/08/12 00:49:12;;;;;;;4.30;3.43;;;18.70;99.90;;;;;;5032597;28;21005;-67
2023/08/12 00:51:42;;;;;;;5.40;3.53;;;18.70;99.90;;;;;;5022016;28;20458;-68
2023/08/12 00:54:13;;;;;;;3.20;2.90;;;18.60;99.90;;;;;;5027975;28;20809;-67
2023/08/12 00:56:40;;;;;;;3.40;3.03;;;18.60;99.90;;;;;;5024360;28;20462;-67
2023/08/12 00:59:09;;;;;;;3.33;3.03;;;18.60;99.90;;;;;;5032469;28;20482;-67
2023/08/12 01:01:39;;;;;;;3.50;3.20;;;18.60;99.90;;;;;;5032484;28;20570;-67
2023/08/12 01:04:06;;;;;;;3.57;3.27;;;18.50;99.90;;;;;;5032692;28;20468;-67
2023/08/12 01:06:33;;;;;;;3.77;3.40;;;18.50;99.90;;;;;;5024068;28;20456;-67
2023/08/12 01:09:01;;;;;;;3.73;3.20;;;18.50;99.90;;;;;;5024163;28;20510;-68
2023/08/12 01:11:35;;;;;;;3.30;3.00;;;18.50;99.90;;;;;;5031425;28;20482;-67
2023/08/12 01:14:09;;;;;;;3.60;3.30;;;18.40;99.90;;;;;;5021180;28;20456;-67
2023/08/12 01:16:41;;;;;;;4.03;3.53;;;18.40;99.90;;;;;;5030742;28;20458;-68
2023/08/12 01:19:12;;;;;;;3.50;3.20;;;18.40;99.90;;;;;;5031457;28;20482;-67
2023/08/12 01:21:44;;;;;;;3.40;3.00;;;18.40;99.90;;;;;;5015762;28;20453;-68
2023/08/12 01:24:12;;;;;;;3.60;3.30;;;18.30;99.90;;;;;;5032525;28;20469;-67
2023/08/12 01:26:39;;;;;;;3.77;3.43;;;18.30;99.90;;;;;;5021567;28;20804;-67
2023/08/12 01:29:06;;;;;;;3.40;3.10;;;18.30;99.90;;;;;;5026223;28;20490;-67
2023/08/12 01:31:36;;;;;;;3.83;3.00;;;18.30;99.90;;;;;;5031930;28;21026;-67
2023/08/12 01:34:12;;;;;;;3.77;3.47;;;18.30;99.90;;;;;;5026897;28;20848;-67
2023/08/12 01:36:42;;;;;;;4.67;4.07;;;18.30;99.90;;;;;;5022211;28;20456;-68
2023/08/12 01:39:12;;;;;;;6.60;3.00;;;18.30;99.90;;;;;;5031777;28;20501;-68
2023/08/12 01:41:39;;;;;;;3.70;3.30;;;18.30;99.90;;;;;;5023632;28;20447;-68
2023/08/12 01:44:06;;;;;;;3.90;3.23;;;18.20;99.90;;;;;;5023904;28;20543;-67
2023/08/12 01:46:33;;;;;;;3.13;2.90;;;18.20;99.90;;;;;;5031482;28;20858;-67
2023/08/12 01:49:00;;;;;;;4.17;3.33;;;18.20;99.90;;;;;;5031644;28;20485;-68
2023/08/12 01:51:27;;;;;;;4.83;4.03;;;18.20;99.90;;;;;;5023317;28;20480;-67
2023/08/12 01:53:53;;;;;;;4.53;4.07;;;18.20;99.90;;;;;;5031888;28;20503;-67
2023/08/12 01:56:21;;;;;;;4.53;3.47;;;18.20;99.90;;;;;;5031726;28;20457;-67
2023/08/12 01:58:48;;;;;;;3.60;3.30;;;18.20;99.90;;;;;;5030946;28;20862;-67
2023/08/12 02:01:15;;;;;;;4.00;3.30;;;18.20;99.90;;;;;;5025100;28;20878;-67
2023/08/12 02:03:41;;;;;;;3.60;3.30;;;18.20;99.90;;;;;;5029890;28;20461;-67
2023/08/12 02:06:08;;;;;;;2.93;2.73;;;18.20;99.90;;;;;;5031469;28;20822;-67
2023/08/12 02:08:35;;;;;;;3.50;3.20;;;18.20;99.90;;;;;;5029783;28;20857;-67
2023/08/12 02:11:01;;;;;;;3.37;3.07;;;18.20;99.90;;;;;;5024774;28;20477;-67
2023/08/12 02:13:30;;;;;;;3.40;3.10;;;18.20;99.90;;;;;;5030880;28;20453;-67
2023/08/12 02:15:57;;;;;;;3.67;3.37;;;18.20;99.90;;;;;;5019158;28;20459;-67
2023/08/12 02:18:23;;;;;;;3.50;3.20;;;18.20;99.90;;;;;;5019541;28;20485;-67
2023/08/12 02:20:50;;;;;;;3.30;3.00;;;18.20;99.90;;;;;;5027596;28;20939;-67
2023/08/12 02:23:17;;;;;;;3.73;3.40;;;18.20;99.90;;;;;;5026387;28;20465;-67
2023/08/12 02:25:44;;;;;;;3.20;2.90;;;18.20;99.90;;;;;;5030949;28;20464;-67
2023/08/12 02:28:11;;;;;;;4.27;3.87;;;18.20;99.90;;;;;;5025154;28;20505;-67
2023/08/12 02:30:39;;;;;;;4.50;3.70;;;18.20;99.90;;;;;;5019181;28;20481;-67
2023/08/12 02:33:06;;;;;;;4.90;4.37;;;18.20;99.90;;;;;;5030947;28;20464;-67
2023/08/12 02:35:33;;;;;;;4.07;3.70;;;18.20;99.90;;;;;;5022178;28;20468;-68
2023/08/12 02:38:00;;;;;;;4.50;4.13;;;18.20;99.90;;;;;;5023531;28;20468;-67
2023/08/12 02:40:27;;;;;;;4.40;4.00;;;18.20;99.90;;;;;;5022396;28;20467;-67
2023/08/12 02:42:53;;;;;;;5.60;4.40;;;18.20;99.90;;;;;;5030628;28;20466;-67
2023/08/12 02:45:20;;;;;;;4.13;3.60;;;18.30;99.90;;;;;;5031013;28;20468;-67
2023/08/12 02:47:48;;;;;;;4.60;3.60;;;18.30;99.90;;;;;;5019959;28;20457;-67
2023/08/12 02:50:15;;;;;;;3.43;3.13;;;18.30;99.90;;;;;;5018770;28;20487;-67
2023/08/12 02:52:41;;;;;;;4.50;3.80;;;18.30;99.90;;;;;;5028574;28;20953;-67
2023/08/12 02:55:09;;;;;;;3.50;3.20;;;18.30;99.90;;;;;;5030769;28;20453;-67
2023/08/12 02:57:36;;;;;;;3.60;3.30;;;18.20;99.90;;;;;;5030222;28;20460;-67
2023/08/12 03:00:05;;;;;;;3.63;3.30;;;18.20;99.90;;;;;;5030263;28;20480;-67
2023/08/12 03:02:31;;;;;;;4.07;3.73;;;18.30;99.90;;;;;;5030330;28;20497;-67
2023/08/12 03:04:59;;;;;;;3.80;3.40;;;18.20;99.90;;;;;;5030494;28;20465;-67
2023/08/12 03:07:26;;;;;;;4.53;4.13;;;18.30;99.90;;;;;;5022330;28;20458;-68
2023/08/12 03:09:53;;;;;;;4.30;3.63;;;18.30;99.90;;;;;;5021587;28;20488;-67
2023/08/12 03:12:19;;;;;;;4.10;3.73;;;18.30;99.90;;;;;;5030671;28;20464;-67
2023/08/12 03:14:46;;;;;;;4.20;3.80;;;18.30;99.90;;;;;;5030122;28;20463;-67
2023/08/12 03:17:13;;;;;;;3.60;3.30;;;18.30;99.90;;;;;;5016700;28;20838;-68
2023/08/12 03:19:39;;;;;;;4.10;3.70;;;18.30;99.90;;;;;;5019043;28;20486;-67
2023/08/12 03:22:07;;;;;;;8.10;4.17;;;18.30;99.90;;;;;;5030450;28;20459;-67
2023/08/12 03:24:34;;;;;;;3.63;3.10;;;18.30;99.90;;;;;;5030023;28;20458;-67
2023/08/12 03:27:01;;;;;;;4.30;3.47;;;18.40;99.90;;;;;;5018536;28;20458;-67
2023/08/12 03:29:28;;;;;;;3.83;3.53;;;18.40;99.90;;;;;;5017447;28;20988;-67
2023/08/12 03:31:53;;;;;;;3.80;3.50;;;18.40;99.90;;;;;;5010883;28;21237;-67
2023/08/12 03:34:20;;;;;;;4.27;3.50;;;18.40;99.90;;;;;;5033245;28;20466;-67
2023/08/12 03:36:48;;;;;;;4.20;3.40;;;18.40;99.90;;;;;;5029714;28;20200;-68
2023/08/12 03:39:16;;;;;;;4.33;3.93;;;18.40;99.90;;;;;;5029897;28;20477;-68
2023/08/12 03:41:44;;;;;;;4.30;3.90;;;18.40;99.90;;;;;;5029882;28;20965;-68
2023/08/12 03:44:10;;;;;;;4.73;3.80;;;18.40;99.90;;;;;;5034421;28;20473;-67
2023/08/12 03:46:37;;;;;;;3.50;3.20;;;18.40;99.90;;;;;;5033862;28;20447;-67
2023/08/12 03:49:04;;;;;;;4.40;4.00;;;18.50;99.90;;;;;;5033724;28;20476;-67
2023/08/12 03:51:30;;;;;;;4.20;3.80;;;18.50;99.90;;;;;;5034051;28;20483;-67
2023/08/12 03:53:57;;;;;;;4.17;3.60;;;18.50;99.90;;;;;;5033674;28;20456;-67
2023/08/12 03:56:25;;;;;;;4.97;4.03;;;18.50;99.90;;;;;;5034005;28;20481;-68
2023/08/12 03:58:52;;;;;;;3.70;3.33;;;18.50;99.90;;;;;;5033268;28;20477;-69
2023/08/12 04:01:19;;;;;;;4.10;3.80;;;18.50;99.90;;;;;;5035283;28;20454;-68
2023/08/12 04:03:48;;;;;;;3.50;3.20;;;18.50;99.90;;;;;;5087864;22;21044;-94
2023/08/12 04:06:15;;;;;;;4.13;3.73;;;18.50;99.90;;;;;;5087397;28;20468;-94
2023/08/12 04:08:45;;;;;;;4.13;3.73;;;18.60;99.90;;;;;;5093250;28;20529;-94
2023/08/12 04:11:16;;;;;;;3.80;3.50;;;18.60;99.90;;;;;;5094995;28;20539;-94
2023/08/12 04:13:47;;;;;;;4.03;3.63;;;18.70;99.90;;;;;;5087450;28;20492;-94
2023/08/12 04:16:14;;;;;;;4.10;3.70;;;18.70;99.90;;;;;;5087881;28;20453;-94
2023/08/12 04:18:42;;;;;;;4.63;4.20;;;18.80;99.90;;;;;;5084854;28;20467;-94
2023/08/12 04:21:12;;;;;;;3.53;3.23;;;18.80;99.90;;;;;;5072583;28;20873;-94
2023/08/12 04:23:39;;;;;;;4.23;3.50;;;18.90;99.90;;;;;;5075570;28;20484;-94
2023/08/12 04:26:06;;;;;;;3.37;3.07;;;19.00;99.90;;;;;;5079685;28;20534;-94
2023/08/12 04:28:33;;;;;;;4.40;4.00;;;19.00;99.90;;;;;;5080657;28;20457;-94
2023/08/12 04:31:01;;;;;;;3.73;3.33;;;19.00;99.90;;;;;;5077185;28;20548;-94
2023/08/12 04:33:27;;;;;;;3.93;3.53;;;19.00;99.90;;;;;;5073493;28;20488;-95
2023/08/12 04:35:54;;;;;;;3.50;3.20;;;19.00;99.90;;;;;;5079490;28;20475;-95
2023/08/12 04:38:23;;;;;;;4.03;3.63;;;19.00;99.90;;;;;;5076554;28;20489;-94
2023/08/12 04:40:50;;;;;;;3.90;3.50;;;19.00;99.90;;;;;;5074333;28;20898;-92
2023/08/12 04:45:56;;;;;;;3.97;3.57;;;19.10;99.90;;;;;;5045710;28;20467;-71
2023/08/12 04:48:24;;;;;;;4.13;3.30;;;19.10;99.90;;;;;;5052476;28;20474;-71
2023/08/12 04:50:51;;;;;;;4.57;4.13;;;19.10;99.90;;;;;;5052491;28;20485;-71
2023/08/12 04:53:17;;;;;;;4.13;3.80;;;19.10;99.90;;;;;;5052138;28;20462;-72
2023/08/12 04:55:44;;;;;;;4.20;3.80;;;19.10;99.90;;;;;;5051881;28;20451;-71
2023/08/12 04:58:11;;;;;;;3.70;3.40;;;19.10;99.90;;;;;;5052743;28;20875;-71
2023/08/12 05:00:37;;;;;;;3.47;3.17;;;19.10;99.90;;;;;;5047745;28;20471;-71
2023/08/12 05:03:05;;;;;;;3.63;3.33;;;19.10;99.90;;;;;;5052237;28;20458;-71
2023/08/12 05:05:33;;;;;;;3.50;3.20;;;19.10;99.90;;;;;;5048724;28;20459;-71
2023/08/12 05:07:59;;;;;;;5.13;3.53;;;19.10;99.90;;;;;;5052302;28;20455;-71
2023/08/12 05:10:26;;;;;;;4.07;3.67;;;19.20;99.90;;;;;;5052164;28;20837;-71
2023/08/12 05:12:54;;;;;;;3.80;3.50;;;19.20;99.90;;;;;;5052513;28;20468;-70
2023/08/12 05:15:21;;;;;;;3.67;3.37;;;19.20;99.90;;;;;;5052467;28;20462;-71
2023/08/12 05:17:47;;;;;;;3.73;3.43;;;19.30;99.90;;;;;;5051933;28;20462;-70
2023/08/12 05:20:14;;;;;;;4.03;3.63;;;19.30;99.90;;;;;;5047981;28;20486;-71
2023/08/12 05:22:42;;;;;;;6.40;3.70;;;19.40;99.90;;;;;;5032321;28;20459;-71
2023/08/12 05:25:09;;;;;;;4.13;3.57;;;19.40;99.90;;;;;;5032168;28;20459;-71
2023/08/12 05:27:36;;;;;;;4.23;3.57;;;19.40;99.90;;;;;;5032062;28;20465;-71
2023/08/12 05:30:03;;;;;;;3.77;3.47;;;19.40;99.90;;;;;;5031651;28;20479;-71
2023/08/12 05:32:29;;;;;;;4.20;3.90;;;19.50;99.90;;;;;;5042299;28;20486;-69
2023/08/12 05:34:56;;;;;;;4.00;3.57;;;19.50;99.90;;;;;;5051796;28;20459;-69
2023/08/12 05:37:23;;;;;;;4.57;3.90;;;19.50;99.90;;;;;;5052239;28;20465;-70
2023/08/12 05:39:51;;;;;;;4.90;3.57;;;19.50;99.90;;;;;;5050464;28;20482;-69
2023/08/12 05:42:18;;;;;;;4.47;4.07;;;19.60;99.90;;;;;;5051488;28;20463;-70
2023/08/12 05:44:44;;;;;;;4.17;3.77;;;19.60;99.90;;;;;;5051031;28;21214;-70
2023/08/12 05:47:11;;;;;;;4.70;3.63;;;19.60;99.90;;;;;;5051407;28;20462;-69
2023/08/12 05:49:38;;;;;;;3.60;3.30;;;19.60;99.90;;;;;;5051159;28;20469;-70
2023/08/12 05:52:05;;;;;;;4.57;4.03;;;19.60;99.90;;;;;;5046773;28;20501;-69
2023/08/12 05:54:32;;;;;;;3.97;3.50;;;19.60;99.90;;;;;;5051553;28;20464;-70
2023/08/12 05:57:00;;;;;;;5.00;3.77;;;19.70;99.90;;;;;;5051163;28;20486;-70
2023/08/12 05:59:27;;;;;;;4.10;3.80;;;19.70;99.90;;;;;;5051241;28;20485;-69
2023/08/12 06:01:54;;;;;;;4.57;4.17;;;19.70;99.90;;;;;;5051480;28;20822;-70
2023/08/12 06:04:21;;;;;;;3.80;3.50;;;19.80;99.90;;;;;;5051471;28;20457;-70
2023/08/12 06:06:48;;;;;;;4.90;4.10;;;19.80;99.90;;;;;;5050773;28;20545;-70
2023/08/12 06:09:14;;;;;;;4.20;3.90;;;19.80;99.90;;;;;;5051045;28;20847;-70
2023/08/12 06:11:41;;;;;;;4.10;3.70;;;19.80;99.90;;;;;;5051093;28;20486;-70
2023/08/12 06:14:09;;;;;;;4.27;3.97;;;19.80;99.90;;;;;;5050839;28;20810;-70
2023/08/12 06:16:36;;;;;;;4.53;4.00;;;19.80;99.90;;;;;;5050716;28;20467;-71
2023/08/12 06:19:03;;;;;;;8.80;3.17;;;19.90;99.90;;;;;;5050384;28;20483;-71
2023/08/12 06:21:29;;;;;;;4.20;3.70;;;19.90;99.90;;;;;;5050863;28;20454;-70
2023/08/12 06:23:56;;;;;;;4.53;4.13;;;20.00;99.90;;;;;;5050541;28;20971;-70
2023/08/12 06:26:23;;;;;;;4.30;3.73;;;20.00;99.90;;;;;;5042976;28;20458;-70
2023/08/12 06:28:50;;;;;;;5.20;3.93;;;20.10;99.90;;;;;;5050741;28;20482;-70
2023/08/12 06:31:18;;;;;;;4.70;3.80;;;20.20;99.90;;;;;;5042938;28;20485;-70
2023/08/12 06:33:44;;;;;;;4.17;3.80;;;20.20;99.90;;;;;;5051046;28;20462;-70
2023/08/12 06:36:12;;;;;;;4.37;3.97;;;20.20;99.90;;;;;;5051194;28;20501;-70
2023/08/12 06:38:38;;;;;;;4.53;4.07;;;20.30;99.90;;;;;;5050456;28;20475;-70
2023/08/12 06:41:05;;;;;;;3.97;3.67;;;20.30;99.90;;;;;;5050900;28;20459;-69
2023/08/12 06:43:32;;;;;;;4.63;4.10;;;20.40;99.90;;;;;;5050757;28;20455;-70
2023/08/12 06:45:58;;;;;;;4.20;3.80;;;20.40;99.90;;;;;;5050694;28;20462;-68
2023/08/12 06:48:26;;;;;;;3.83;3.43;;;20.50;99.90;;;;;;5050475;28;20486;-68
2023/08/12 06:50:57;;;;;;;3.30;3.00;;;20.60;99.90;;;;;;5050814;28;20843;-68
2023/08/12 06:53:23;;;;;;;4.00;3.57;;;20.70;99.90;;;;;;5051082;28;20457;-75
2023/08/12 06:55:50;;;;;;;3.90;3.40;;;20.90;99.90;;;;;;5050438;28;20450;-72
2023/08/12 06:58:17;;;;;;;3.93;3.63;;;21.00;99.90;;;;;;5050423;28;20494;-71
2023/08/12 07:00:44;;;;;;;3.07;2.87;;;21.20;99.90;;;;;;5042112;28;20447;-72
2023/08/12 07:03:10;;;;;;;3.90;3.60;;;21.20;99.90;;;;;;5050522;28;20486;-71
2023/08/12 07:05:38;;;;;;;4.63;4.20;;;21.40;99.90;;;;;;5050358;28;20466;-71
2023/08/12 07:08:06;;;;;;;4.40;4.00;;;21.40;99.90;;;;;;5042476;28;20482;-71
2023/08/12 07:10:32;;;;;;;4.40;3.93;;;21.60;99.90;;;;;;5049103;28;20458;-71
2023/08/12 07:12:59;;;;;;;4.47;4.00;;;21.80;99.90;;;;;;5050096;28;20480;-71
2023/08/12 07:15:26;;;;;;;4.10;3.70;;;22.00;99.90;;;;;;5037445;28;20454;-71
2023/08/12 07:17:52;;;;;;;4.43;4.03;;;22.20;99.90;;;;;;5035447;28;20528;-71
2023/08/12 07:20:19;;;;;;;3.73;3.43;;;22.30;99.90;;;;;;5046406;28;20457;-72
2023/08/12 07:22:47;;;;;;;4.00;3.60;;;22.30;99.90;;;;;;5030477;28;20454;-71
2023/08/12 07:25:14;;;;;;;4.00;3.60;;;22.40;99.90;;;;;;5030170;28;20458;-71
2023/08/12 07:27:41;;;;;;;4.47;4.07;;;22.60;99.90;;;;;;5029838;28;20458;-72
2023/08/12 07:30:08;;;;;;;4.17;3.70;;;22.70;99.90;;;;;;5029538;28;20983;-71
2023/08/12 07:32:36;;;;;;;3.60;3.30;;;22.80;99.90;;;;;;5029908;28;20482;-72
2023/08/12 07:35:05;;;;;;;4.93;3.80;;;22.90;99.90;;;;;;5039529;28;20464;-72
2023/08/12 07:37:33;;;;;;;4.10;3.33;;;23.00;99.90;;;;;;5050178;28;20466;-71
2023/08/12 07:40:01;;;;;;;3.47;3.17;;;23.00;99.90;;;;;;5049772;28;20483;-71
2023/08/12 07:42:28;;;;;;;3.83;3.40;;;23.10;99.90;;;;;;5050138;28;20457;-71
2023/08/12 07:44:54;;;;;;;3.90;3.47;;;23.20;99.90;;;;;;5050052;28;20482;-73
2023/08/12 07:47:21;;;;;;;3.67;3.37;;;23.40;99.90;;;;;;5049990;28;20469;-71
2023/08/12 07:49:48;;;;;;;3.37;3.07;;;23.50;99.90;;;;;;5042958;28;20483;-71
2023/08/12 07:52:14;;;;;;;3.53;3.23;;;23.60;99.90;;;;;;5040673;28;21024;-72
2023/08/12 07:54:41;;;;;;;3.17;2.87;;;23.70;99.90;;;;;;5050019;28;20462;-72
2023/08/12 07:57:09;;;;;;;3.60;3.30;;;23.90;99.90;;;;;;5049947;28;20459;-72
2023/08/12 07:59:36;;;;;;;3.40;3.10;;;24.00;99.90;;;;;;5036600;28;20984;-71
2023/08/12 08:02:03;;;;;;;3.40;3.10;;;24.10;99.90;;;;;;5030642;28;20449;-71
2023/08/12 08:04:29;;;;;;;3.40;3.10;;;24.10;99.90;;;;;;5046167;28;20456;-72
2023/08/12 08:06:56;;;;;;;3.37;3.03;;;24.20;99.90;;;;;;5038465;28;20532;-71
2023/08/12 08:09:23;;;;;;;4.03;3.63;;;24.20;99.90;;;;;;5032850;28;20475;-71
2023/08/12 08:11:49;;;;;;;3.70;3.40;;;24.20;99.90;;;;;;5049907;28;20487;-71
2023/08/12 08:14:18;;;;;;;3.30;3.00;;;24.30;99.90;;;;;;5031294;28;20966;-73
2023/08/12 08:16:44;;;;;;;3.10;2.80;;;24.50;99.90;;;;;;5043907;28;20459;-71
2023/08/12 08:19:11;;;;;;;3.17;2.87;;;24.70;99.90;;;;;;5049506;28;20482;-71
2023/08/12 08:21:38;;;;;;;4.30;3.17;;;24.80;99.90;;;;;;5049768;28;20495;-71
2023/08/12 08:24:05;;;;;;;4.43;3.20;;;24.90;99.90;;;;;;5049803;28;20838;-73
2023/08/12 08:26:32;;;;;;;3.27;2.97;;;24.90;99.90;;;;;;5049659;28;20460;-73
2023/08/12 08:28:58;;;;;;;3.03;2.83;;;25.00;99.90;;;;;;5035437;28;20484;-73
2023/08/12 08:31:26;;;;;;;3.83;3.53;;;25.20;99.90;;;;;;5033188;28;20456;-73
2023/08/12 08:33:53;;;;;;;3.60;3.30;;;25.30;99.90;;;;;;5033259;28;20481;-73
2023/08/12 08:36:20;;;;;;;3.73;3.10;;;25.50;99.90;;;;;;5033113;28;20967;-73
2023/08/12 08:38:46;;;;;;;3.07;2.87;;;25.70;99.90;;;;;;5032856;28;20476;-73
2023/08/12 08:41:14;;;;;;;3.70;3.30;;;25.80;99.90;;;;;;5051162;28;20460;-72
2023/08/12 08:43:44;;;;;;;3.20;2.90;;;26.00;99.90;;;;;;5052953;28;20452;-72
2023/08/12 08:46:15;;;;;;;3.77;3.13;;;26.20;99.90;;;;;;5053041;28;20881;-72
2023/08/12 08:48:43;;;;;;;2.93;2.73;;;26.40;99.90;;;;;;5044929;28;20471;-73
2023/08/12 08:51:11;;;;;;;3.27;2.90;;;26.40;99.90;;;;;;5053245;28;20466;-73
2023/08/12 08:53:39;;;;;;;2.43;2.23;;;26.40;99.90;;;;;;5053497;28;20475;-71
2023/08/12 08:56:06;;;;;;;2.90;2.67;;;26.50;99.90;;;;;;5052857;28;20985;-70
2023/08/12 08:58:33;;;;;;;3.10;2.80;;;26.60;99.90;;;;;;5052518;28;20847;-72
2023/08/12 09:01:00;;;;;;;2.90;2.70;;;26.60;99.90;;;;;;5053004;28;20467;-72
2023/08/12 09:03:27;;;;;;;2.70;2.50;;;26.70;99.90;;;;;;5052659;28;20878;-70
2023/08/12 09:05:56;;;;;;;6.70;3.03;;;26.80;99.90;;;;;;5052972;28;20456;-70
2023/08/12 09:08:24;;;;;;;2.70;2.50;;;26.90;99.90;;;;;;5052108;28;20986;-70
2023/08/12 09:10:51;;;;;;;2.60;2.33;;;26.90;99.90;;;;;;5052920;28;20951;-73
2023/08/12 09:13:18;;;;;;;2.77;2.57;;;27.10;99.90;;;;;;5052699;28;20479;-73
2023/08/12 09:15:45;;;;;;;2.50;2.30;;;27.20;99.90;;;;;;5052716;28;20503;-72
2023/08/12 09:18:12;;;;;;;2.67;2.17;;;27.30;99.90;;;;;;5052157;28;20467;-72
2023/08/12 09:20:39;;;;;;;2.10;1.90;;;27.30;99.90;;;;;;5052214;28;20525;-72
2023/08/12 09:23:08;;;;;;;2.40;2.20;;;27.30;99.90;;;;;;5052664;28;20478;-72
2023/08/12 09:25:35;;;;;;;2.43;1.97;;;27.20;99.90;;;;;;5052407;28;20510;-73
2023/08/12 09:28:03;;;;;;;2.43;2.23;;;27.20;99.90;;;;;;5052176;28;20456;-73
2023/08/12 09:30:31;;;;;;;2.57;2.37;;;27.10;99.90;;;;;;5048857;28;20940;-73
2023/08/12 09:33:02;;;;;;;3.13;2.33;;;27.20;99.90;;;;;;5032181;28;20554;-73
2023/08/12 09:35:34;;;;;;;3.30;2.57;;;27.30;99.90;;;;;;5032233;28;20469;-72
2023/08/12 09:38:02;;;;;;;2.20;2.00;;;27.30;99.90;;;;;;5039324;28;20955;-72
2023/08/12 09:40:31;;;;;;;2.43;2.23;;;27.50;99.90;;;;;;5050903;28;20459;-72
2023/08/12 09:42:58;;;;;;;2.73;2.20;;;27.60;99.90;;;;;;5052201;28;20542;-73
2023/08/12 09:45:25;;;;;;;3.10;2.40;;;27.60;99.90;;;;;;5041810;28;20455;-73
2023/08/12 09:47:53;;;;;;;2.60;2.40;;;27.80;99.90;;;;;;5040379;28;20464;-72
2023/08/12 09:50:22;;;;;;;3.83;2.43;;;27.80;99.90;;;;;;5049635;28;20463;-71
2023/08/12 09:52:49;;;;;;;2.37;2.17;;;27.80;99.90;;;;;;5051989;28;20913;-71
2023/08/12 09:55:17;;;;;;;2.93;2.67;;;27.70;99.90;;;;;;5042644;28;20457;-71
2023/08/12 09:57:49;;;;;;;2.70;2.50;;;27.50;99.90;;;;;;5036532;28;20452;-70
2023/08/12 10:00:18;;;;;;;3.50;2.70;;;27.40;99.90;;;;;;5051707;28;20475;-70
2023/08/12 10:05:22;;;;;;;3.90;2.50;;;27.30;99.90;;;;;;4927019;22;20521;-69
2023/08/12 10:07:49;;;;;;;2.80;2.60;;;27.30;99.90;;;;;;5070216;28;20454;-69
2023/08/12 10:10:16;;;;;;;2.60;2.40;;;27.20;99.90;;;;;;5070869;28;20855;-69
2023/08/12 10:12:45;;;;;;;2.53;2.33;;;27.20;99.90;;;;;;5071357;28;20528;-69
2023/08/12 10:15:12;;;;;;;2.70;2.50;;;27.20;99.90;;;;;;5063385;28;20462;-69
2023/08/12 10:17:41;;;;;;;2.77;2.40;;;27.20;99.90;;;;;;5071239;28;20462;-69
2023/08/12 10:20:09;;;;;;;3.00;2.80;;;27.20;99.90;;;;;;5070666;28;20475;-69
2023/08/12 10:22:38;;;;;;;4.03;2.50;;;27.20;99.90;;;;;;5071237;28;20829;-69
2023/08/12 10:25:10;;;;;;;2.77;2.57;;;27.20;99.90;;;;;;5055386;28;20459;-69
2023/08/12 10:27:37;;;;;;;3.75;2.50;;;27.20;99.90;;;;;;5053921;28;20545;-69
2023/08/12 10:30:07;;;;;;;3.13;2.83;;;27.20;99.90;;;;;;5070432;28;20242;-69
2023/08/12 10:32:34;;;;;;;3.00;2.70;;;27.30;99.90;;;;;;5059834;28;20502;-69
2023/08/12 10:35:02;;;;;;;3.27;2.97;;;27.30;99.90;;;;;;5050909;28;20452;-69
2023/08/12 10:37:33;;;;;;;2.80;2.60;;;27.40;99.90;;;;;;5050124;28;20467;-69
2023/08/12 10:39:59;;;;;;;2.90;2.60;;;27.50;99.90;;;;;;5058741;28;20482;-69
2023/08/12 10:42:43;;;;;;;3.13;2.80;;;27.50;99.90;;;;;;5069199;28;20462;-70
2023/08/12 10:45:12;;;;;;;2.60;2.40;;;27.50;99.90;;;;;;5070655;28;20946;-69
2023/08/12 10:47:40;;;;;;;2.90;2.70;;;27.40;99.90;;;;;;5068864;28;20462;-69
2023/08/12 10:50:16;;;;;;;4.10;3.77;;;27.30;99.90;;;;;;5069358;28;20478;-69
2023/08/12 10:52:45;;;;;;;6.07;3.90;;;27.40;99.90;;;;;;5069596;28;20478;-70
2023/08/12 10:55:19;;;;;;;2.77;2.57;;;27.50;99.90;;;;;;5070660;28;20825;-70
2023/08/12 10:57:46;;;;;;;3.30;3.00;;;27.60;99.90;;;;;;5070492;28;20462;-70
2023/08/12 11:00:16;;;;;;;3.20;2.90;;;27.90;99.90;;;;;;5069918;28;20489;-69
2023/08/12 11:02:46;;;;;;;2.70;2.50;;;28.10;99.90;;;;;;5070827;28;20565;-69
2023/08/12 11:05:14;;;;;;;2.97;2.77;;;28.10;99.90;;;;;;5070302;28;20469;-69
2023/08/12 11:07:42;;;;;;;2.73;2.47;;;28.00;99.90;;;;;;5058919;28;20456;-70
2023/08/12 11:10:14;;;;;;;2.93;2.50;;;28.00;99.90;;;;;;5050067;28;20891;-69
2023/08/12 11:12:43;;;;;;;2.47;2.27;;;27.90;99.90;;;;;;5061929;28;20482;-70
2023/08/12 11:15:11;;;;;;;2.87;2.67;;;27.80;99.90;;;;;;5070167;28;20469;-70
2023/08/12 11:17:40;;;;;;;2.90;2.60;;;28.10;99.90;;;;;;5070118;28;20823;-69
2023/08/12 11:20:09;;;;;;;3.00;2.73;;;28.40;99.90;;;;;;5069761;28;20478;-69
2023/08/12 11:22:38;;;;;;;3.30;2.90;;;28.70;99.90;;;;;;5070121;28;20938;-69
2023/08/12 11:25:08;;;;;;;2.27;2.07;;;29.00;99.90;;;;;;5055731;28;20505;-69
2023/08/12 11:27:42;;;;;;;3.20;2.90;;;29.30;99.90;;;;;;5050146;28;20459;-70
2023/08/12 11:30:11;;;;;;;2.40;2.20;;;29.30;99.90;;;;;;5049601;28;20482;-70
2023/08/12 11:32:39;;;;;;;2.97;2.67;;;29.20;99.90;;;;;;5049900;28;20455;-70
2023/08/12 11:35:08;;;;;;;5.20;3.27;;;29.00;99.90;;;;;;5058404;28;20955;-70
2023/08/12 11:37:36;;;;;;;2.53;2.33;;;28.90;99.90;;;;;;5051952;28;20483;-70
2023/08/12 11:40:04;;;;;;;2.47;2.27;;;28.90;99.90;;;;;;5063908;28;20487;-70
2023/08/12 11:42:30;;;;;;;3.03;2.73;;;29.00;99.90;;;;;;5050063;28;20831;-70
2023/08/12 11:44:57;;;;;;;2.70;2.50;;;29.30;99.90;;;;;;5055219;28;20462;-70
2023/08/12 11:47:24;;;;;;;3.20;2.90;;;29.50;99.90;;;;;;5060873;28;20546;-70
2023/08/12 11:49:53;;;;;;;2.60;2.40;;;29.50;99.90;;;;;;5049890;28;20476;-70
2023/08/12 11:52:20;;;;;;;3.40;3.10;;;29.50;99.90;;;;;;5050019;28;20455;-70
2023/08/12 11:54:47;;;;;;;3.13;2.83;;;29.70;99.90;;;;;;5053672;28;20497;-70
2023/08/12 11:57:14;;;;;;;2.33;2.13;;;29.90;99.90;;;;;;5069805;28;20474;-69
2023/08/12 11:59:40;;;;;;;3.00;2.30;;;29.90;99.90;;;;;;5069431;28;20493;-70
2023/08/12 12:02:08;;;;;;;3.60;2.40;;;29.80;99.90;;;;;;5063985;28;20888;-69
2023/08/12 12:04:35;;;;;;;2.30;1.90;;;29.60;99.90;;;;;;5052625;28;20969;-69
2023/08/12 12:07:06;;;;;;;2.87;2.67;;;29.20;99.90;;;;;;5067301;28;20462;-69
2023/08/12 12:09:32;;;;;;;2.50;2.30;;;29.00;99.90;;;;;;5073411;28;20474;-69
2023/08/12 12:12:00;;;;;;;2.80;2.60;;;28.60;99.90;;;;;;5073789;28;20455;-69
2023/08/12 12:14:27;;;;;;;2.80;2.33;;;28.40;99.90;;;;;;5072988;28;20485;-69
2023/08/12 12:16:53;;;;;;;2.93;2.70;;;28.20;99.90;;;;;;5053620;28;20460;-69
2023/08/12 12:19:22;;;;;;;3.13;2.80;;;28.00;99.90;;;;;;5053281;28;20480;-69
2023/08/12 12:21:50;;;;;;;2.80;2.60;;;27.70;99.90;;;;;;5062055;28;20455;-69
2023/08/12 12:24:18;;;;;;;3.00;2.30;;;27.50;99.90;;;;;;5069026;28;20463;-69
2023/08/12 12:26:46;;;;;;;3.80;3.17;;;27.20;99.90;;;;;;5073277;28;20466;-69
2023/08/12 12:29:14;;;;;;;3.33;3.00;;;26.90;99.90;;;;;;5073230;28;20486;-69
2023/08/12 12:31:42;;;;;;;3.23;2.93;;;26.60;99.90;;;;;;5073256;28;20957;-69
2023/08/12 12:34:10;;;;;;;4.43;3.97;;;26.30;99.90;;;;;;5073144;28;20478;-69
2023/08/12 12:36:38;;;;;;;4.57;4.10;;;26.00;99.90;;;;;;5072931;28;20899;-70
2023/08/12 12:39:05;;;;;;;5.40;4.27;;;25.80;99.90;;;;;;5072382;28;20475;-69
2023/08/12 12:41:34;;;;;;;4.37;3.37;;;25.50;99.90;;;;;;5073196;28;20476;-69
2023/08/12 12:44:01;;;;;;;5.03;4.40;;;25.30;99.90;;;;;;5073096;28;20458;-69
2023/08/12 12:46:28;;;;;;;4.00;3.60;;;25.10;99.90;;;;;;5072973;28;20455;-69
2023/08/12 12:48:55;;;;;;;3.93;3.53;;;25.00;99.90;;;;;;5060480;28;20475;-70
2023/08/12 12:51:22;;;;;;;4.10;3.70;;;25.00;99.90;;;;;;5053143;28;20456;-69
2023/08/12 12:53:48;;;;;;;3.90;3.60;;;24.90;99.90;;;;;;5052802;28;20475;-69